Time;durP1;ratioP1;P1;durP2;ratioP2;P2;SDS_P1;SDS_P2;PMS_P1;PMS_P2;Temp;Humidity;BMP_temperature;BMP_pressure;BME280_temperature;BME280_humidity;BME280_pressure;Samples;Min_cycle;Max_cycle;Signal;HPM_P1;HPM_P2
2022/05/28 00:01:33;;;;;;;9.10;1.30;;;13.40;59.90;;;;;;5048874;28;20052;-86
2022/05/28 00:03:59;;;;;;;5.53;1.30;;;13.40;59.90;;;;;;5029629;28;20057;-87
2022/05/28 00:06:29;;;;;;;7.78;1.75;;;13.40;60.10;;;;;;5048365;28;20045;-87
2022/05/28 00:08:56;;;;;;;6.82;1.60;;;13.40;60.20;;;;;;5034762;28;20045;-86
2022/05/28 00:11:31;;;;;;;8.43;1.40;;;13.30;60.10;;;;;;5020866;28;20175;-87
2022/05/28 00:13:57;;;;;;;6.57;1.33;;;13.30;60.10;;;;;;5049761;28;20049;-86
2022/05/28 00:16:23;;;;;;;5.53;1.27;;;13.30;60.20;;;;;;5040955;28;20047;-86
2022/05/28 00:18:51;;;;;;;10.07;1.52;;;13.30;60.80;;;;;;5049031;28;20132;-83
2022/05/28 00:21:18;;;;;;;8.00;1.60;;;13.40;61.70;;;;;;5041167;28;20125;-84
2022/05/28 00:23:47;;;;;;;7.82;1.42;;;13.30;62.40;;;;;;5015899;28;20056;-82
2022/05/28 00:26:14;;;;;;;6.55;1.27;;;13.30;63.20;;;;;;5037595;28;20435;-83
2022/05/28 00:28:40;;;;;;;4.70;1.35;;;13.20;63.10;;;;;;5039643;28;20053;-85
2022/05/28 00:31:06;;;;;;;3.45;0.90;;;13.10;63.20;;;;;;5031907;28;20136;-84
2022/05/28 00:33:32;;;;;;;3.42;0.95;;;13.00;62.90;;;;;;5033515;28;20389;-84
2022/05/28 00:35:59;;;;;;;2.67;0.75;;;12.90;62.80;;;;;;5026860;28;20506;-82
2022/05/28 00:38:25;;;;;;;4.72;0.85;;;12.80;62.60;;;;;;5034234;28;20075;-82
2022/05/28 00:40:54;;;;;;;6.00;1.10;;;12.70;62.60;;;;;;5047590;28;20383;-81
2022/05/28 00:43:20;;;;;;;4.45;0.68;;;12.60;62.70;;;;;;5026036;28;20045;-83
2022/05/28 00:45:49;;;;;;;5.10;0.70;;;12.60;62.70;;;;;;5029362;28;20179;-81
2022/05/28 00:48:22;;;;;;;4.60;1.00;;;12.60;62.70;;;;;;5049834;28;20543;-82
2022/05/28 00:50:49;;;;;;;6.60;1.13;;;12.60;62.80;;;;;;5029188;28;20149;-83
2022/05/28 00:53:15;;;;;;;5.05;1.52;;;12.50;62.70;;;;;;5033084;28;20091;-83
2022/05/28 00:55:41;;;;;;;2.95;1.35;;;12.50;62.80;;;;;;5038659;28;20049;-82
2022/05/28 00:58:08;;;;;;;3.17;0.80;;;12.50;63.00;;;;;;5046100;28;20053;-83
2022/05/28 01:00:36;;;;;;;8.93;1.35;;;12.50;63.10;;;;;;5019807;28;20123;-82
2022/05/28 01:03:27;;;;;;;5.95;1.10;;;12.40;63.20;;;;;;5038168;28;20046;-83
2022/05/28 01:06:49;;;;;;;6.60;1.95;;;12.50;63.60;;;;;;5005591;28;20057;-82
2022/05/28 01:09:27;;;;;;;10.48;1.38;;;12.50;63.70;;;;;;4919916;29;20040;-83
2022/05/28 01:12:10;;;;;;;5.03;1.27;;;12.50;63.80;;;;;;4932028;29;20067;-82
2022/05/28 01:15:02;;;;;;;4.20;1.00;;;12.50;63.90;;;;;;4932545;29;20039;-83
2022/05/28 01:17:33;;;;;;;5.32;1.65;;;12.50;63.90;;;;;;4931643;29;20059;-83
2022/05/28 01:20:09;;;;;;;6.43;1.23;;;12.50;64.00;;;;;;4936947;29;20550;-82
2022/05/28 01:22:58;;;;;;;9.98;1.20;;;12.40;64.10;;;;;;4935356;29;20511;-83
2022/05/28 01:25:53;;;;;;;3.72;1.10;;;12.50;64.30;;;;;;4907340;29;20056;-82
2022/05/28 01:28:24;;;;;;;6.50;1.17;;;12.40;64.20;;;;;;4935099;29;20048;-83
2022/05/28 01:30:53;;;;;;;7.20;1.30;;;12.50;64.10;;;;;;4920980;29;20107;-83
2022/05/28 01:33:20;;;;;;;5.55;1.10;;;12.40;64.10;;;;;;4919142;29;20059;-83
2022/05/28 01:35:48;;;;;;;8.65;1.00;;;12.40;64.00;;;;;;4934914;29;20051;-83
2022/05/28 01:38:16;;;;;;;4.88;0.90;;;12.40;63.90;;;;;;4936332;29;20063;-83
2022/05/28 01:40:43;;;;;;;7.22;1.60;;;12.50;63.90;;;;;;4936085;29;20134;-80
2022/05/28 01:43:12;;;;;;;6.85;1.80;;;12.50;63.80;;;;;;4935282;29;20504;-82
2022/05/28 01:45:41;;;;;;;5.38;1.35;;;12.50;63.70;;;;;;5031624;28;20526;-81
2022/05/28 01:48:08;;;;;;;6.50;1.10;;;12.50;63.70;;;;;;5030686;28;20053;-82
2022/05/28 01:50:39;;;;;;;5.90;1.33;;;12.50;63.50;;;;;;5040436;28;20459;-82
2022/05/28 01:53:07;;;;;;;4.95;0.95;;;12.50;63.40;;;;;;5043716;28;20045;-83
2022/05/28 01:55:38;;;;;;;3.03;0.85;;;12.50;63.30;;;;;;5044939;28;20132;-82
2022/05/28 01:58:04;;;;;;;4.40;1.48;;;12.50;63.20;;;;;;5026867;28;20495;-82
2022/05/28 02:00:30;;;;;;;7.40;1.50;;;12.50;63.10;;;;;;5037640;28;20056;-82
2022/05/28 02:02:59;;;;;;;6.90;1.35;;;12.50;63.10;;;;;;5048294;28;20384;-82
2022/05/28 02:05:25;;;;;;;5.07;1.23;;;12.40;63.00;;;;;;5051421;28;20447;-82
2022/05/28 02:07:50;;;;;;;11.75;1.35;;;12.40;63.00;;;;;;5050018;28;20041;-81
2022/05/28 02:10:18;;;;;;;7.10;1.80;;;12.40;63.00;;;;;;5042622;28;20041;-82
2022/05/28 02:13:01;;;;;;;6.00;1.10;;;12.30;63.00;;;;;;5044042;28;20047;-82
2022/05/28 02:15:51;;;;;;;4.18;1.00;;;12.30;63.10;;;;;;5040064;28;20132;-82
2022/05/28 02:18:25;;;;;;;7.65;1.50;;;12.30;63.10;;;;;;5042131;28;20115;-82
2022/05/28 02:21:16;;;;;;;7.60;1.30;;;12.20;63.00;;;;;;5018966;28;20077;-82
2022/05/28 02:23:53;;;;;;;7.05;1.42;;;12.20;63.00;;;;;;5046489;28;20082;-82
2022/05/28 02:26:35;;;;;;;6.32;1.30;;;12.20;63.00;;;;;;5042146;28;20177;-82
2022/05/28 02:29:01;;;;;;;7.70;1.02;;;12.20;63.00;;;;;;5046891;28;20061;-81
2022/05/28 02:31:32;;;;;;;5.45;1.55;;;12.20;63.00;;;;;;5044081;28;20057;-81
2022/05/28 02:33:58;;;;;;;4.15;1.00;;;12.20;63.00;;;;;;5032472;28;20080;-82
2022/05/28 02:36:25;;;;;;;8.98;1.38;;;12.20;63.00;;;;;;5047822;28;20053;-82
2022/05/28 02:38:51;;;;;;;5.32;0.95;;;12.10;62.80;;;;;;5045770;28;20083;-82
2022/05/28 02:41:19;;;;;;;7.38;1.27;;;12.20;62.80;;;;;;5033635;28;20080;-83
2022/05/28 02:43:44;;;;;;;6.47;1.00;;;12.10;62.70;;;;;;5026056;28;20049;-84
2022/05/28 02:46:10;;;;;;;4.15;1.50;;;12.10;62.70;;;;;;5042348;28;20414;-84
2022/05/28 02:48:38;;;;;;;7.30;1.63;;;12.10;62.60;;;;;;5046412;28;20049;-84
2022/05/28 02:51:05;;;;;;;4.85;1.33;;;12.00;62.50;;;;;;5052570;28;20048;-84
2022/05/28 02:53:30;;;;;;;6.45;0.93;;;12.00;62.60;;;;;;5030013;28;20052;-84
2022/05/28 02:55:56;;;;;;;7.13;1.45;;;12.10;62.70;;;;;;5037218;28;20049;-82
2022/05/28 02:58:22;;;;;;;6.57;2.13;;;12.00;62.70;;;;;;5044855;28;20128;-82
2022/05/28 03:00:47;;;;;;;9.35;1.92;;;12.00;62.70;;;;;;5052543;28;20044;-83
2022/05/28 03:03:19;;;;;;;8.23;1.33;;;11.90;62.70;;;;;;5049936;28;20049;-82
2022/05/28 03:05:45;;;;;;;5.38;1.65;;;11.90;62.80;;;;;;5017278;28;20050;-82
2022/05/28 03:08:11;;;;;;;6.03;1.73;;;11.90;62.90;;;;;;5024256;28;20084;-83
2022/05/28 03:10:37;;;;;;;4.82;1.13;;;11.80;62.90;;;;;;5034186;28;20539;-83
2022/05/28 03:13:02;;;;;;;7.60;1.33;;;11.80;63.00;;;;;;5020555;28;20079;-83
2022/05/28 03:15:28;;;;;;;6.85;1.80;;;11.70;62.90;;;;;;5023474;28;20057;-82
2022/05/28 03:17:53;;;;;;;9.50;2.03;;;11.70;63.00;;;;;;5021398;28;20161;-82
2022/05/28 03:20:19;;;;;;;6.82;1.20;;;11.70;63.00;;;;;;5041381;28;20485;-82
2022/05/28 03:22:45;;;;;;;8.02;1.27;;;11.60;63.00;;;;;;5036888;28;20055;-82
2022/05/28 03:25:10;;;;;;;4.78;1.35;;;11.60;63.00;;;;;;5024991;28;20122;-83
2022/05/28 03:27:36;;;;;;;7.72;1.70;;;11.60;63.20;;;;;;5050997;28;20164;-83
2022/05/28 03:30:03;;;;;;;4.55;1.20;;;11.60;63.30;;;;;;5046000;28;20053;-83
2022/05/28 03:32:29;;;;;;;15.93;2.10;;;11.50;63.30;;;;;;5044875;28;20064;-83
2022/05/28 03:34:54;;;;;;;5.80;1.65;;;11.60;63.40;;;;;;5043482;28;20045;-84
2022/05/28 03:37:20;;;;;;;6.15;1.35;;;11.50;63.30;;;;;;5047638;28;20052;-83
2022/05/28 03:39:46;;;;;;;6.60;1.67;;;11.50;63.40;;;;;;5043410;28;20140;-83
2022/05/28 03:42:11;;;;;;;9.60;1.58;;;11.40;63.40;;;;;;5016009;28;20050;-82
2022/05/28 03:44:37;;;;;;;7.57;1.17;;;11.50;63.50;;;;;;5037898;28;20125;-82
2022/05/28 03:47:03;;;;;;;7.90;1.20;;;11.50;63.50;;;;;;5048348;28;20392;-83
2022/05/28 03:49:32;;;;;;;8.23;1.73;;;11.50;63.60;;;;;;5025242;28;20127;-84
2022/05/28 03:51:58;;;;;;;10.68;1.23;;;11.50;63.50;;;;;;5031807;28;20041;-83
2022/05/28 03:54:24;;;;;;;6.22;1.55;;;11.50;63.60;;;;;;5032699;28;20472;-84
2022/05/28 03:56:54;;;;;;;6.25;1.67;;;11.50;63.50;;;;;;5021845;28;20125;-84
2022/05/28 03:59:20;;;;;;;9.63;1.30;;;11.50;63.50;;;;;;5039871;28;20143;-84
2022/05/28 04:01:46;;;;;;;5.85;1.40;;;11.50;63.50;;;;;;5050325;28;20129;-84
2022/05/28 04:04:11;;;;;;;4.93;1.50;;;11.50;63.60;;;;;;5049051;28;20159;-84
2022/05/28 04:06:38;;;;;;;9.38;1.73;;;11.40;63.60;;;;;;5021136;28;20084;-84
2022/05/28 04:09:05;;;;;;;8.90;1.95;;;11.50;63.70;;;;;;5038119;28;20420;-85
2022/05/28 04:11:30;;;;;;;9.90;2.00;;;11.40;63.80;;;;;;5046780;28;20045;-85
2022/05/28 04:13:56;;;;;;;9.18;2.33;;;11.40;63.90;;;;;;5049291;28;20060;-84
2022/05/28 04:16:24;;;;;;;5.05;1.02;;;11.40;64.00;;;;;;5050358;28;20051;-84
2022/05/28 04:18:49;;;;;;;7.85;1.67;;;11.40;64.10;;;;;;5033192;28;20056;-84
2022/05/28 04:21:15;;;;;;;8.35;1.67;;;11.40;64.20;;;;;;5024584;28;20057;-84
2022/05/28 04:23:41;;;;;;;9.13;1.85;;;11.40;64.40;;;;;;5047589;28;20083;-84
2022/05/28 04:26:06;;;;;;;11.75;2.10;;;11.40;64.50;;;;;;5045015;28;20049;-84
2022/05/28 04:28:32;;;;;;;8.40;1.63;;;11.40;64.60;;;;;;5049673;28;20087;-84
2022/05/28 04:30:58;;;;;;;7.45;1.65;;;11.40;64.70;;;;;;5043738;28;20052;-84
2022/05/28 04:33:24;;;;;;;6.88;1.60;;;11.40;64.70;;;;;;5050670;28;20064;-83
2022/05/28 04:35:49;;;;;;;6.18;1.30;;;11.40;64.80;;;;;;5027871;28;20565;-84
2022/05/28 04:38:16;;;;;;;10.45;2.28;;;11.40;65.00;;;;;;5034266;28;20057;-84
2022/05/28 04:40:41;;;;;;;8.90;2.28;;;11.40;65.10;;;;;;5044036;28;20049;-84
2022/05/28 04:43:07;;;;;;;4.82;1.73;;;11.40;65.20;;;;;;5050116;28;20037;-84
2022/05/28 04:45:33;;;;;;;6.72;2.05;;;11.50;65.40;;;;;;5021080;28;20140;-84
2022/05/28 04:47:58;;;;;;;7.90;1.45;;;11.40;65.40;;;;;;5041797;28;20045;-83
2022/05/28 04:50:24;;;;;;;13.15;2.78;;;11.50;65.60;;;;;;5048753;28;20049;-85
2022/05/28 04:52:50;;;;;;;9.85;2.13;;;11.50;65.70;;;;;;5020539;28;20046;-84
2022/05/28 04:55:15;;;;;;;15.38;2.20;;;11.50;65.70;;;;;;5048470;28;20053;-84
2022/05/28 04:57:41;;;;;;;10.57;2.17;;;11.60;65.70;;;;;;5030413;28;20048;-85
2022/05/28 05:00:14;;;;;;;12.57;2.03;;;11.60;65.80;;;;;;5048586;28;20464;-84
2022/05/28 05:02:40;;;;;;;8.98;2.55;;;11.60;65.90;;;;;;5041870;28;20053;-84
2022/05/28 05:05:06;;;;;;;12.65;2.67;;;11.70;66.10;;;;;;5045553;28;20172;-84
2022/05/28 05:07:32;;;;;;;10.07;1.90;;;11.70;66.20;;;;;;5028069;28;20064;-84
2022/05/28 05:09:57;;;;;;;10.90;2.28;;;11.80;66.40;;;;;;5049260;28;20041;-83
2022/05/28 05:12:23;;;;;;;12.00;2.13;;;12.00;66.70;;;;;;5046659;28;20373;-83
2022/05/28 05:14:49;;;;;;;13.73;2.22;;;12.20;66.50;;;;;;5043500;28;20143;-83
2022/05/28 05:17:15;;;;;;;9.60;1.88;;;12.40;65.90;;;;;;5027853;28;20496;-84
2022/05/28 05:19:40;;;;;;;12.93;2.67;;;12.70;65.30;;;;;;5045571;28;20397;-84
2022/05/28 05:22:06;;;;;;;13.63;2.22;;;12.90;64.70;;;;;;5047972;28;20484;-84
2022/05/28 05:24:33;;;;;;;11.55;2.03;;;13.20;64.40;;;;;;5021524;28;20427;-84
2022/05/28 05:27:02;;;;;;;7.03;1.70;;;13.40;63.70;;;;;;5042501;28;20045;-83
2022/05/28 05:29:28;;;;;;;8.98;1.77;;;13.80;62.90;;;;;;5050348;28;20107;-84
2022/05/28 05:31:54;;;;;;;9.18;2.20;;;14.10;61.90;;;;;;5049292;28;20111;-84
2022/05/28 05:34:20;;;;;;;7.85;1.75;;;14.50;60.90;;;;;;5053419;28;20484;-84
2022/05/28 05:36:45;;;;;;;7.78;2.15;;;14.70;59.80;;;;;;5051976;28;20045;-83
2022/05/28 05:39:11;;;;;;;10.95;2.05;;;14.90;59.30;;;;;;5049389;28;20096;-83
2022/05/28 05:41:43;;;;;;;8.85;2.50;;;15.00;58.80;;;;;;5050497;28;20056;-84
2022/05/28 05:44:10;;;;;;;9.40;2.22;;;15.20;58.00;;;;;;5035887;28;20060;-82
2022/05/28 05:46:40;;;;;;;9.00;1.85;;;15.40;57.40;;;;;;5033601;28;20045;-84
2022/05/28 05:49:05;;;;;;;7.53;1.73;;;15.50;57.00;;;;;;5051324;28;20059;-83
2022/05/28 05:51:31;;;;;;;9.88;2.00;;;15.80;56.90;;;;;;5052088;28;20118;-84
2022/05/28 05:53:56;;;;;;;11.68;2.33;;;16.00;56.40;;;;;;5035847;28;20443;-83
2022/05/28 05:56:22;;;;;;;11.68;2.13;;;16.10;55.50;;;;;;5023370;28;20046;-83
2022/05/28 05:58:48;;;;;;;10.48;2.28;;;16.20;54.70;;;;;;5019026;28;20057;-83
2022/05/28 06:01:14;;;;;;;8.68;2.00;;;16.20;53.80;;;;;;5047639;28;20087;-83
2022/05/28 06:03:44;;;;;;;8.48;1.73;;;16.10;53.70;;;;;;5046679;28;20484;-83
2022/05/28 06:06:13;;;;;;;8.02;1.70;;;16.10;53.50;;;;;;5026847;28;20045;-84
2022/05/28 06:08:39;;;;;;;7.20;1.98;;;16.10;53.50;;;;;;5029747;28;20056;-83
2022/05/28 06:11:04;;;;;;;11.10;2.45;;;15.90;53.60;;;;;;5048371;28;20052;-84
2022/05/28 06:13:30;;;;;;;12.82;2.50;;;15.90;53.70;;;;;;5032763;28;20072;-82
2022/05/28 06:15:56;;;;;;;7.68;1.88;;;15.70;53.90;;;;;;5051586;28;20526;-83
2022/05/28 06:18:22;;;;;;;8.05;2.13;;;15.60;54.00;;;;;;5022652;28;20067;-83
2022/05/28 06:20:49;;;;;;;7.30;2.35;;;15.50;54.30;;;;;;5018326;28;20103;-83
2022/05/28 06:23:16;;;;;;;13.90;2.42;;;15.40;54.20;;;;;;5037817;28;20065;-83
2022/05/28 06:25:42;;;;;;;13.15;2.40;;;15.30;54.30;;;;;;5044154;28;20399;-82
2022/05/28 06:28:08;;;;;;;10.45;2.55;;;15.10;54.60;;;;;;5034319;28;20136;-84
2022/05/28 06:30:34;;;;;;;9.02;2.00;;;15.00;54.60;;;;;;5044101;28;20037;-84
2022/05/28 06:32:59;;;;;;;10.85;2.55;;;14.90;54.70;;;;;;5029392;28;20400;-84
2022/05/28 06:35:25;;;;;;;12.68;2.10;;;14.80;55.00;;;;;;5046325;28;20081;-80
2022/05/28 06:37:52;;;;;;;10.10;2.42;;;14.70;55.60;;;;;;5034750;28;20053;-82
2022/05/28 06:40:18;;;;;;;13.57;2.13;;;14.60;56.30;;;;;;5037598;28;20092;-83
2022/05/28 06:42:46;;;;;;;9.25;2.03;;;14.60;56.50;;;;;;5047862;28;20041;-82
2022/05/28 06:45:14;;;;;;;11.68;1.90;;;14.50;56.70;;;;;;5043075;28;20159;-82
2022/05/28 06:47:44;;;;;;;11.32;2.42;;;14.50;56.50;;;;;;5054555;28;20071;-83
2022/05/28 06:52:56;;;;;;;10.63;2.72;;;14.50;56.80;;;;;;5037211;28;20087;-81
2022/05/28 06:55:22;;;;;;;12.75;3.40;;;14.40;57.00;;;;;;5031684;28;20081;-81
2022/05/28 06:57:48;;;;;;;12.32;3.33;;;14.50;57.20;;;;;;5038735;28;20128;-81
2022/05/28 07:00:14;;;;;;;14.05;2.50;;;14.40;57.10;;;;;;5020490;28;20492;-81
2022/05/28 07:02:40;;;;;;;14.15;2.10;;;14.40;57.40;;;;;;5041966;28;20096;-83
2022/05/28 07:05:06;;;;;;;15.35;2.53;;;14.40;57.30;;;;;;5052258;28;20080;-80
2022/05/28 07:07:31;;;;;;;12.60;3.20;;;14.40;57.30;;;;;;5043174;28;20060;-81
2022/05/28 07:09:57;;;;;;;12.13;2.67;;;14.40;57.80;;;;;;5038268;28;20045;-81
2022/05/28 07:12:23;;;;;;;9.52;2.75;;;14.40;57.80;;;;;;5020561;28;20049;-81
2022/05/28 07:14:48;;;;;;;12.00;3.28;;;14.50;57.90;;;;;;5020365;28;20132;-81
2022/05/28 07:17:14;;;;;;;13.98;2.47;;;14.60;58.30;;;;;;5022841;28;20069;-81
2022/05/28 07:19:41;;;;;;;10.07;2.13;;;14.80;58.50;;;;;;5040899;28;20053;-81
2022/05/28 07:22:07;;;;;;;11.32;2.50;;;15.00;58.40;;;;;;5047996;28;20052;-82
2022/05/28 07:24:33;;;;;;;13.27;3.42;;;15.20;57.60;;;;;;5034678;28;20041;-82
2022/05/28 07:26:59;;;;;;;10.32;2.42;;;15.20;55.60;;;;;;5052307;28;20048;-82
2022/05/28 07:29:25;;;;;;;12.85;2.63;;;15.30;55.00;;;;;;5052006;28;20044;-82
2022/05/28 07:31:50;;;;;;;12.02;2.50;;;15.30;54.90;;;;;;5035563;28;20049;-82
2022/05/28 07:34:16;;;;;;;11.05;1.95;;;15.30;54.50;;;;;;5047053;28;20067;-81
2022/05/28 07:36:42;;;;;;;13.10;2.00;;;15.30;54.30;;;;;;5031982;28;20079;-81
2022/05/28 07:39:08;;;;;;;7.82;2.20;;;15.30;54.10;;;;;;5027943;28;20061;-81
2022/05/28 07:41:35;;;;;;;10.35;2.70;;;15.30;54.30;;;;;;5017167;28;20558;-81
2022/05/28 07:44:01;;;;;;;10.40;2.40;;;15.30;54.60;;;;;;5050751;28;20439;-80
2022/05/28 07:46:30;;;;;;;12.77;2.72;;;15.30;55.10;;;;;;5011501;28;20137;-81
2022/05/28 07:48:57;;;;;;;12.07;2.28;;;15.40;55.00;;;;;;5044078;28;20060;-80
2022/05/28 07:51:23;;;;;;;9.80;2.35;;;15.50;54.30;;;;;;5022267;28;20068;-80
2022/05/28 07:53:49;;;;;;;8.15;2.38;;;15.50;54.40;;;;;;5053291;28;20403;-81
2022/05/28 07:56:16;;;;;;;8.23;2.28;;;15.50;53.70;;;;;;5030439;28;20056;-81
2022/05/28 07:58:42;;;;;;;9.68;2.13;;;15.50;53.20;;;;;;5016778;28;20045;-81
2022/05/28 08:01:16;;;;;;;8.13;2.22;;;15.50;53.20;;;;;;5046068;28;20044;-82
2022/05/28 08:03:42;;;;;;;8.93;2.58;;;15.60;53.50;;;;;;5030598;28;20057;-82
2022/05/28 08:06:08;;;;;;;11.85;2.30;;;15.60;54.00;;;;;;5025279;28;20066;-82
2022/05/28 08:08:33;;;;;;;10.90;2.25;;;15.60;54.00;;;;;;5047395;28;20053;-82
2022/05/28 08:10:59;;;;;;;13.05;2.40;;;15.70;54.20;;;;;;5054143;28;20494;-82
2022/05/28 08:13:25;;;;;;;10.10;2.55;;;15.80;54.00;;;;;;5018222;28;20057;-82
2022/05/28 08:15:53;;;;;;;10.93;2.15;;;15.90;53.80;;;;;;5033138;28;20412;-83
2022/05/28 08:18:23;;;;;;;9.23;2.30;;;16.00;53.10;;;;;;5049012;28;20049;-82
2022/05/28 08:23:34;;;;;;;13.63;2.78;;;16.10;52.60;;;;;;5034022;28;20045;-82
2022/05/28 08:26:00;;;;;;;10.30;1.83;;;16.20;52.20;;;;;;5036280;28;20056;-82
2022/05/28 08:28:25;;;;;;;7.82;2.60;;;16.20;52.10;;;;;;5040506;28;20099;-81
2022/05/28 08:30:51;;;;;;;16.20;2.35;;;16.20;51.70;;;;;;5052649;28;20480;-81
2022/05/28 08:33:19;;;;;;;13.13;2.50;;;16.10;51.50;;;;;;5051959;28;20139;-82
2022/05/28 08:35:46;;;;;;;12.75;3.10;;;16.10;52.00;;;;;;5054484;28;20049;-82
2022/05/28 08:38:18;;;;;;;9.82;2.70;;;16.10;52.50;;;;;;5051085;28;20053;-82
2022/05/28 08:40:47;;;;;;;8.68;2.55;;;16.20;52.80;;;;;;5056047;28;20098;-81
2022/05/28 08:43:15;;;;;;;9.68;2.28;;;16.30;52.50;;;;;;5044663;28;20061;-81
2022/05/28 08:45:42;;;;;;;11.00;2.15;;;16.30;52.10;;;;;;5047773;28;20041;-82
2022/05/28 08:48:08;;;;;;;13.68;2.88;;;16.40;51.70;;;;;;5040008;28;20057;-82
2022/05/28 08:50:41;;;;;;;9.32;2.47;;;16.40;51.70;;;;;;5045142;28;20074;-81
2022/05/28 08:53:13;;;;;;;10.82;2.20;;;16.40;51.80;;;;;;5050916;28;20056;-82
2022/05/28 08:55:45;;;;;;;12.10;2.15;;;16.30;51.60;;;;;;5029441;28;20403;-82
2022/05/28 08:58:15;;;;;;;9.70;2.55;;;16.30;51.30;;;;;;5051398;28;20087;-80
2022/05/28 09:00:43;;;;;;;7.90;2.30;;;16.20;51.70;;;;;;5045682;28;20424;-83
2022/05/28 09:03:13;;;;;;;9.90;2.13;;;16.20;51.20;;;;;;5048227;28;20476;-83
2022/05/28 09:05:56;;;;;;;8.15;2.13;;;16.20;50.90;;;;;;5053549;28;20045;-81
2022/05/28 09:08:34;;;;;;;9.07;2.53;;;16.20;50.80;;;;;;5052142;28;20492;-81
2022/05/28 09:11:09;;;;;;;9.82;2.10;;;16.30;51.20;;;;;;5047836;28;20075;-84
2022/05/28 09:13:43;;;;;;;11.05;2.28;;;16.20;51.40;;;;;;5056468;28;20057;-83
2022/05/28 09:16:25;;;;;;;9.18;2.22;;;16.30;51.50;;;;;;5038576;28;20063;-83
2022/05/28 09:18:53;;;;;;;10.85;2.47;;;16.30;51.90;;;;;;5054767;28;20060;-84
2022/05/28 09:21:19;;;;;;;10.15;2.42;;;16.30;52.10;;;;;;5056419;28;20513;-84
2022/05/28 09:23:50;;;;;;;10.25;3.05;;;16.30;52.40;;;;;;5056383;28;20503;-82
2022/05/28 09:26:27;;;;;;;9.82;2.22;;;16.50;52.60;;;;;;5038290;28;20053;-82
2022/05/28 09:28:57;;;;;;;11.23;2.25;;;16.60;52.50;;;;;;5035424;28;20424;-82
2022/05/28 09:31:26;;;;;;;12.10;2.30;;;16.80;52.30;;;;;;5047724;28;20060;-83
2022/05/28 09:34:14;;;;;;;8.43;1.83;;;16.90;50.90;;;;;;5037849;28;20052;-82
2022/05/28 09:36:51;;;;;;;9.13;2.13;;;16.90;49.70;;;;;;5055930;28;20060;-82
2022/05/28 09:39:27;;;;;;;7.85;2.00;;;16.90;49.60;;;;;;5035845;28;20057;-84
2022/05/28 09:42:02;;;;;;;9.73;2.25;;;16.80;49.80;;;;;;5055808;28;20045;-83
2022/05/28 09:44:43;;;;;;;9.93;2.53;;;16.80;49.90;;;;;;5056131;28;20053;-83
2022/05/28 09:47:13;;;;;;;11.98;2.58;;;16.70;50.30;;;;;;5021381;28;20049;-83
2022/05/28 09:49:50;;;;;;;11.82;2.53;;;16.70;50.90;;;;;;5038009;28;20091;-83
2022/05/28 09:52:21;;;;;;;10.60;1.98;;;16.80;51.60;;;;;;5033914;28;20068;-83
2022/05/28 09:54:46;;;;;;;12.10;2.38;;;16.90;52.00;;;;;;5056029;28;20052;-84
2022/05/28 09:57:25;;;;;;;11.38;2.72;;;16.90;51.00;;;;;;5055482;28;20075;-83
2022/05/28 10:00:00;;;;;;;12.23;2.17;;;17.00;49.80;;;;;;5038108;28;20056;-84
2022/05/28 10:02:42;;;;;;;6.70;2.08;;;16.90;49.00;;;;;;5052207;28;20531;-83
2022/05/28 10:05:15;;;;;;;10.65;2.85;;;16.90;49.60;;;;;;5036150;28;20107;-84
2022/05/28 10:07:46;;;;;;;9.25;2.00;;;17.00;50.70;;;;;;5053816;28;20056;-83
2022/05/28 10:10:13;;;;;;;8.82;2.10;;;17.10;51.60;;;;;;5054686;28;20243;-84
2022/05/28 10:12:39;;;;;;;8.73;1.90;;;17.30;50.60;;;;;;5037545;28;20098;-83
2022/05/28 10:15:11;;;;;;;7.75;2.05;;;17.40;49.10;;;;;;5026621;28;20140;-84
2022/05/28 10:17:36;;;;;;;8.90;2.15;;;17.50;47.90;;;;;;5051183;28;20559;-84
2022/05/28 10:20:14;;;;;;;8.20;2.35;;;17.40;48.00;;;;;;5055281;28;20116;-85
2022/05/28 10:22:40;;;;;;;11.90;2.60;;;17.50;47.80;;;;;;5031596;28;20045;-81
2022/05/28 10:25:22;;;;;;;8.65;1.83;;;17.50;47.60;;;;;;5052965;28;20051;-82
2022/05/28 10:27:49;;;;;;;7.80;2.05;;;17.40;47.50;;;;;;5036803;28;20059;-81
2022/05/28 10:30:43;;;;;;;7.13;1.83;;;17.50;48.00;;;;;;5047232;28;20056;-82
2022/05/28 10:33:16;;;;;;;10.98;1.95;;;17.40;47.50;;;;;;5049406;28;20143;-83
2022/05/28 10:35:42;;;;;;;9.37;2.23;;;17.30;47.20;;;;;;5050291;28;20121;-81
2022/05/28 10:38:14;;;;;;;9.65;2.45;;;17.30;47.00;;;;;;5054098;28;20310;-83
2022/05/28 10:40:59;;;;;;;12.38;2.17;;;17.30;48.30;;;;;;5055164;28;20045;-83
2022/05/28 10:43:34;;;;;;;9.35;2.30;;;17.30;48.80;;;;;;5054709;28;20049;-82
2022/05/28 10:46:09;;;;;;;11.82;1.90;;;17.40;49.70;;;;;;5034565;28;20132;-81
2022/05/28 10:48:54;;;;;;;11.23;2.50;;;17.50;50.40;;;;;;5036663;28;20060;-81
2022/05/28 10:51:46;;;;;;;6.43;2.03;;;17.60;50.40;;;;;;5053742;28;20130;-82
2022/05/28 10:54:37;;;;;;;10.30;2.25;;;17.70;48.90;;;;;;5034844;28;20087;-81
2022/05/28 10:57:25;;;;;;;9.02;2.65;;;17.70;48.80;;;;;;5035935;28;20370;-81
2022/05/28 11:00:05;;;;;;;8.48;2.28;;;17.70;48.20;;;;;;5017315;28;20058;-85
2022/05/28 11:03:08;;;;;;;6.22;2.38;;;17.60;47.90;;;;;;5043570;28;20044;-81
2022/05/28 11:05:53;;;;;;;9.95;2.28;;;17.60;47.60;;;;;;5054700;28;20075;-81
2022/05/28 11:08:46;;;;;;;6.32;1.70;;;17.60;47.20;;;;;;5026477;28;20116;-82
2022/05/28 11:11:49;;;;;;;7.65;2.08;;;17.50;47.60;;;;;;5016802;28;20064;-79
2022/05/28 11:14:20;;;;;;;8.60;2.40;;;17.60;47.80;;;;;;5033291;28;20068;-81
2022/05/28 11:17:04;;;;;;;7.32;1.80;;;17.60;48.10;;;;;;5017428;28;20050;-83
2022/05/28 11:19:40;;;;;;;8.32;2.00;;;17.70;47.20;;;;;;5039720;28;20493;-79
2022/05/28 11:22:25;;;;;;;8.73;2.42;;;17.70;47.00;;;;;;5021064;28;20579;-81
2022/05/28 11:25:05;;;;;;;9.35;2.42;;;17.80;47.10;;;;;;5055656;28;20131;-86
2022/05/28 11:27:59;;;;;;;10.07;2.30;;;17.80;47.30;;;;;;5036789;28;20115;-84
2022/05/28 11:30:29;;;;;;;9.73;2.40;;;17.80;47.90;;;;;;5034959;28;20439;-80
2022/05/28 11:33:15;;;;;;;11.02;2.03;;;17.90;48.30;;;;;;5035311;28;20098;-82
2022/05/28 11:35:49;;;;;;;10.73;2.13;;;17.90;47.90;;;;;;5054033;28;20124;-84
2022/05/28 11:38:38;;;;;;;6.88;1.88;;;17.90;46.50;;;;;;5036188;28;20048;-81
2022/05/28 11:41:18;;;;;;;7.20;1.75;;;17.90;46.00;;;;;;5019419;28;20068;-88
2022/05/28 11:44:10;;;;;;;8.65;2.47;;;17.90;45.60;;;;;;5032538;28;20202;-85
2022/05/28 11:46:56;;;;;;;9.43;1.85;;;17.80;46.20;;;;;;5036282;28;20053;-79
2022/05/28 11:52:21;;;;;;;10.10;1.95;;;17.80;46.60;;;;;;5035688;28;20136;-83
2022/05/28 11:55:28;;;;;;;8.85;2.10;;;17.80;47.30;;;;;;5036240;28;20081;-94
2022/05/28 11:58:18;;;;;;;10.88;1.83;;;17.90;47.30;;;;;;4919780;29;20063;-85
2022/05/28 12:00:54;;;;;;;6.88;2.17;;;17.90;46.80;;;;;;4920187;29;20106;-85
2022/05/28 12:03:28;;;;;;;7.40;1.92;;;18.00;45.20;;;;;;4925647;29;20053;-87
2022/05/28 12:05:53;;;;;;;;;;;17.90;44.60;;;;;;4954038;29;20059;-84
2022/05/28 12:08:41;;;;;;;11.20;2.75;;;17.90;45.50;;;;;;4953219;29;19923;-83
2022/05/28 12:11:30;;;;;;;7.18;2.40;;;17.80;46.30;;;;;;4937638;29;20095;-83
2022/05/28 12:13:59;;;;;;;10.40;2.40;;;17.80;46.60;;;;;;4895976;29;20097;-81
2022/05/28 12:16:31;;;;;;;11.93;2.47;;;17.80;46.60;;;;;;4865811;29;20519;-85
2022/05/28 12:19:05;;;;;;;10.48;2.80;;;17.70;46.90;;;;;;4895730;29;20060;-85
2022/05/28 12:21:37;;;;;;;10.60;2.60;;;17.60;47.00;;;;;;4881039;29;20143;-86
2022/05/28 12:24:14;;;;;;;9.77;2.53;;;17.60;47.30;;;;;;4896340;29;20056;-85
2022/05/28 12:29:58;;;;;;;12.35;2.17;;;17.60;47.90;;;;;;4828885;29;20065;-80
2022/05/28 12:32:28;;;;;;;8.57;2.38;;;17.60;47.70;;;;;;4906689;29;20408;-80
2022/05/28 12:34:56;;;;;;;9.25;1.98;;;17.50;47.70;;;;;;4932872;29;20142;-81
2022/05/28 12:37:38;;;;;;;9.30;2.53;;;17.50;47.90;;;;;;4950958;29;20158;-80
2022/05/28 12:40:28;;;;;;;12.05;2.35;;;17.40;47.80;;;;;;4900992;29;20063;-82
2022/05/28 12:42:54;;;;;;;10.07;2.40;;;17.20;47.80;;;;;;4933483;29;20056;-81
2022/05/28 12:45:41;;;;;;;7.82;1.80;;;17.10;47.90;;;;;;4933980;29;20451;-82
2022/05/28 12:48:29;;;;;;;10.88;2.45;;;17.00;47.90;;;;;;4934126;29;20134;-81
2022/05/28 12:51:05;;;;;;;12.18;1.98;;;16.90;48.10;;;;;;4933955;29;20056;-81
2022/05/28 12:53:58;;;;;;;7.00;2.17;;;16.70;48.60;;;;;;4933366;29;20048;-82
2022/05/28 12:56:35;;;;;;;7.45;1.85;;;16.60;49.10;;;;;;4917104;29;20058;-81
2022/05/28 12:59:13;;;;;;;9.18;2.30;;;16.50;49.90;;;;;;4933193;29;20052;-79
2022/05/28 13:02:00;;;;;;;10.80;2.25;;;16.50;50.70;;;;;;4943408;29;20514;-81
2022/05/28 13:04:30;;;;;;;10.73;2.53;;;16.40;51.40;;;;;;4921507;29;20114;-80
2022/05/28 13:07:01;;;;;;;8.65;2.53;;;16.30;51.50;;;;;;5012110;28;20065;-82
2022/05/28 13:09:29;;;;;;;8.45;2.30;;;16.30;51.50;;;;;;5043622;28;20060;-80
2022/05/28 13:12:18;;;;;;;6.32;1.85;;;16.20;50.60;;;;;;5031494;28;20044;-81
2022/05/28 13:14:46;;;;;;;4.78;1.55;;;16.20;50.40;;;;;;5053277;28;20434;-81